sensor_id;sensor_type;location;lat;lon;timestamp;temperature;humidity
45311;SHT31;68264;51.540;5.854;2023-09-19T00:07:44;15.1;85.6
45311;SHT31;68264;51.540;5.854;2023-09-19T00:21:43;15.1;85.7
45311;SHT31;68264;51.540;5.854;2023-09-19T00:36:11;14.8;86.6
45311;SHT31;68264;51.540;5.854;2023-09-19T00:50:30;14.8;86.1
45311;SHT31;68264;51.540;5.854;2023-09-19T01:06:02;14.8;84.3
45311;SHT31;68264;51.540;5.854;2023-09-19T01:21:32;14.8;83.5
45311;SHT31;68264;51.540;5.854;2023-09-19T01:35:31;14.7;82.3
45311;SHT31;68264;51.540;5.854;2023-09-19T01:49:59;14.6;82.3
45311;SHT31;68264;51.540;5.854;2023-09-19T02:04:19;14.5;81.9
45311;SHT31;68264;51.540;5.854;2023-09-19T02:18:47;14.4;81.6
45311;SHT31;68264;51.540;5.854;2023-09-19T02:33:35;14.3;81.3
45311;SHT31;68264;51.540;5.854;2023-09-19T02:47:54;14.2;80.4
45311;SHT31;68264;51.540;5.854;2023-09-19T03:01:53;14.1;79.4
45311;SHT31;68264;51.540;5.854;2023-09-19T03:15:52;13.9;79.7
45311;SHT31;68264;51.540;5.854;2023-09-19T03:29:51;13.8;79.7
45311;SHT31;68264;51.540;5.854;2023-09-19T03:43:50;13.8;80.1
45311;SHT31;68264;51.540;5.854;2023-09-19T03:57:49;13.7;80.4
45311;SHT31;68264;51.540;5.854;2023-09-19T04:11:48;13.8;80.5
45311;SHT31;68264;51.540;5.854;2023-09-19T04:25:47;13.6;81.5
45311;SHT31;68264;51.540;5.854;2023-09-19T04:39:46;13.6;82.8
45311;SHT31;68264;51.540;5.854;2023-09-19T04:54:15;13.6;83.6
45311;SHT31;68264;51.540;5.854;2023-09-19T05:08:34;13.7;84.0
45311;SHT31;68264;51.540;5.854;2023-09-19T05:23:02;13.8;83.6
45311;SHT31;68264;51.540;5.854;2023-09-19T05:37:21;14.0;82.9
45311;SHT31;68264;51.540;5.854;2023-09-19T05:51:20;14.1;82.7
45311;SHT31;68264;51.540;5.854;2023-09-19T06:05:19;14.2;83.3
45311;SHT31;68264;51.540;5.854;2023-09-19T06:19:18;14.2;83.1
45311;SHT31;68264;51.540;5.854;2023-09-19T06:33:17;14.3;83.3
45311;SHT31;68264;51.540;5.854;2023-09-19T06:47:16;14.5;83.8
45311;SHT31;68264;51.540;5.854;2023-09-19T07:01:16;14.6;83.9
45311;SHT31;68264;51.540;5.854;2023-09-19T07:15:44;14.7;83.8
45311;SHT31;68264;51.540;5.854;2023-09-19T07:30:03;14.9;84.1
45311;SHT31;68264;51.540;5.854;2023-09-19T07:44:02;15.0;83.7
45311;SHT31;68264;51.540;5.854;2023-09-19T07:58:01;15.5;82.4
45311;SHT31;68264;51.540;5.854;2023-09-19T08:12:00;15.8;82.2
45311;SHT31;68264;51.540;5.854;2023-09-19T08:25:59;16.1;80.7
45311;SHT31;68264;51.540;5.854;2023-09-19T08:40:27;16.3;79.1
45311;SHT31;68264;51.540;5.854;2023-09-19T08:54:46;16.8;77.6
45311;SHT31;68264;51.540;5.854;2023-09-19T09:09:14;16.9;77.7
45311;SHT31;68264;51.540;5.854;2023-09-19T09:23:34;17.1;76.5
45311;SHT31;68264;51.540;5.854;2023-09-19T09:37:33;17.4;75.5
45311;SHT31;68264;51.540;5.854;2023-09-19T09:52:33;17.9;74.1
45311;SHT31;68264;51.540;5.854;2023-09-19T10:07:33;18.1;70.3
45311;SHT31;68264;51.540;5.854;2023-09-19T10:21:32;18.2;72.0
45311;SHT31;68264;51.540;5.854;2023-09-19T10:35:31;18.4;71.3
45311;SHT31;68264;51.540;5.854;2023-09-19T10:49:59;18.4;68.7
45311;SHT31;68264;51.540;5.854;2023-09-19T11:04:18;18.5;67.8
45311;SHT31;68264;51.540;5.854;2023-09-19T11:18:46;18.5;68.5
45311;SHT31;68264;51.540;5.854;2023-09-19T11:33:35;19.4;66.8
45311;SHT31;68264;51.540;5.854;2023-09-19T11:48:23;19.5;65.0
45311;SHT31;68264;51.540;5.854;2023-09-19T12:02:42;19.9;64.7
45311;SHT31;68264;51.540;5.854;2023-09-19T12:17:10;19.5;64.5
45311;SHT31;68264;51.540;5.854;2023-09-19T12:31:58;19.9;62.6
45311;SHT31;68264;51.540;5.854;2023-09-19T12:46:18;20.0;66.1
45311;SHT31;68264;51.540;5.854;2023-09-19T13:14:16;19.6;65.4
45311;SHT31;68264;51.540;5.854;2023-09-19T13:28:15;19.9;64.0
45311;SHT31;68264;51.540;5.854;2023-09-19T13:42:14;19.6;65.5
45311;SHT31;68264;51.540;5.854;2023-09-19T13:56:42;19.4;65.6
45311;SHT31;68264;51.540;5.854;2023-09-19T14:11:01;19.3;67.1
45311;SHT31;68264;51.540;5.854;2023-09-19T14:25:00;19.1;68.2
45311;SHT31;68264;51.540;5.854;2023-09-19T14:40:01;19.3;66.6
45311;SHT31;68264;51.540;5.854;2023-09-19T15:12:03;19.4;68.2
45311;SHT31;68264;51.540;5.854;2023-09-19T15:27:36;19.3;68.9
45311;SHT31;68264;51.540;5.854;2023-09-19T15:43:06;19.2;69.3
45311;SHT31;68264;51.540;5.854;2023-09-19T15:57:05;19.2;69.1
45311;SHT31;68264;51.540;5.854;2023-09-19T16:11:04;19.2;69.0
45311;SHT31;68264;51.540;5.854;2023-09-19T16:25:03;19.0;69.7
45311;SHT31;68264;51.540;5.854;2023-09-19T16:39:31;18.9;69.3
45311;SHT31;68264;51.540;5.854;2023-09-19T17:09:07;18.7;70.5
45311;SHT31;68264;51.540;5.854;2023-09-19T17:23:27;18.6;71.0
45311;SHT31;68264;51.540;5.854;2023-09-19T17:37:26;18.6;71.0
45311;SHT31;68264;51.540;5.854;2023-09-19T17:51:25;18.5;71.9
45311;SHT31;68264;51.540;5.854;2023-09-19T18:05:53;18.5;71.6
45311;SHT31;68264;51.540;5.854;2023-09-19T18:20:12;18.4;72.2
45311;SHT31;68264;51.540;5.854;2023-09-19T18:34:40;18.3;72.2
45311;SHT31;68264;51.540;5.854;2023-09-19T19:03:27;18.2;72.6
45311;SHT31;68264;51.540;5.854;2023-09-19T19:17:47;18.2;73.3
45311;SHT31;68264;51.540;5.854;2023-09-19T19:32:47;18.2;73.6
45311;SHT31;68264;51.540;5.854;2023-09-19T19:47:47;18.1;73.7
45311;SHT31;68264;51.540;5.854;2023-09-19T20:01:46;18.1;73.7
45311;SHT31;68264;51.540;5.854;2023-09-19T20:16:14;18.0;73.3
45311;SHT31;68264;51.540;5.854;2023-09-19T20:30:33;18.1;73.6
45311;SHT31;68264;51.540;5.854;2023-09-19T20:59:32;18.2;72.5
45311;SHT31;68264;51.540;5.854;2023-09-19T21:15:01;18.2;73.3
45311;SHT31;68264;51.540;5.854;2023-09-19T21:29:20;18.1;73.0
45311;SHT31;68264;51.540;5.854;2023-09-19T21:43:19;18.2;73.6
45311;SHT31;68264;51.540;5.854;2023-09-19T21:58:20;18.2;73.3
45311;SHT31;68264;51.540;5.854;2023-09-19T22:15:24;18.2;73.5
45311;SHT31;68264;51.540;5.854;2023-09-19T22:31:25;18.1;73.9
45311;SHT31;68264;51.540;5.854;2023-09-19T22:45:24;17.9;74.6
45311;SHT31;68264;51.540;5.854;2023-09-19T23:00:24;17.7;75.8
45311;SHT31;68264;51.540;5.854;2023-09-19T23:15:23;17.5;76.8
45311;SHT31;68264;51.540;5.854;2023-09-19T23:29:22;17.4;77.5
45311;SHT31;68264;51.540;5.854;2023-09-19T23:43:21;17.3;77.7
45311;SHT31;68264;51.540;5.854;2023-09-19T23:57:20;17.3;78.0
